Jack Frost Mountain, Pennsylvania
Current Conditions -  °F | °C
As of 3:13 PM on Monday 22 Dec 2014 (Local Time) from KMPO Reporting Station
Moderate Fog Moderate Fog  
Wind Chill: 26°   Ceiling: 200
Heat Index: 32°   Visibility: 0.25mi
Dew Point: 30°   Wind: 6mph
Humidity: 92%   Direction: 120°ESE
Pressure: 30.15"   Gusts: NA
Location:  41.1°N, 75.63°W
Report Text: KMPO 222013Z AUTO 12005KT 1/4SM FG VV002 00/M01 A3015 RMK AO2 I1000 T00001011
Loading
Personal Weather Stations






























Interactive Weather Map New forecast layout! Learn more

10-Day Weather Forecast

Advertisements
Track Severe Weather on mobile